Maersk Nimes — VRFO7 — position and weather

sailwx.info

Track history (hours):
 
Tides and Currents Weather Stations Pressure Air Temp Water Temp Dewpoint Dewpoint Depression Visibility Wind Speed Wind Dir Waves Ship Positions

Maersk Nimes

Last reported at 2017-Jul-21 13:46 UTC. Time now 2017-Jul-21 16:50 UTC.
Position N 57°49' E 009°53'.

Length 210 m; draft 10.8 m.

Type: Cargo ship. MMSI: 477559200.

Date/timePositionNaut miles runAvg speedWind from/ knotsBaromVisibWave heightAir tempDewpointWater temp
2017-Jul-21 13:46N 57°49' E 009°53'414.9
2017-Jul-21 13:30N 57°50' E 010°00'814.6
2017-Jul-21 13:00N 57°50' E 010°14'714.7
2017-Jul-21 12:30N 57°50' E 010°28'714.3
2017-Jul-21 12:00N 57°50' E 010°42'612.0
2017-Jul-21 11:30N 57°46' E 010°50'611.4
2017-Jul-21 11:01N 57°42' E 010°58'713.4
2017-Jul-21 10:30N 57°38' E 011°07'713.8
2017-Jul-21 10:00N 57°33' E 011°16'713.6
2017-Jul-21 09:30N 57°28' E 011°25'713.7
2017-Jul-21 09:00N 57°22' E 011°30'713.4
2017-Jul-21 08:31N 57°15' E 011°34'713.7
2017-Jul-21 08:00N 57°09' E 011°38'813.5
2017-Jul-21 07:24N 57°01' E 011°43'613.3
2017-Jul-21 06:56N 56°55' E 011°47'713.1
2017-Jul-21 06:24N 56°49' E 011°51'512.0
2017-Jul-21 05:59N 56°44' E 011°52'714.0
2017-Jul-21 05:30N 56°38' E 011°46'612.8
2017-Jul-21 05:00N 56°32' E 011°40'3113.0
2017-Jul-21 02:38N 56°06' E 011°10'213.8
2017-Jul-21 02:30N 56°05' E 011°08'714.1
2017-Jul-21 02:00N 55°59' E 011°02'714.5
2017-Jul-21 01:30N 55°53' E 010°54'714.8
2017-Jul-21 01:00N 55°46' E 010°49'714.1
2017-Jul-21 00:29N 55°39' E 010°47'714.5
2017-Jul-20 23:59N 55°32' E 010°52'713.6
2017-Jul-20 23:29N 55°26' E 010°58'713.7
2017-Jul-20 22:59N 55°20' E 011°02'613.5
2017-Jul-20 22:30N 55°14' E 011°06'1311.8
2017-Jul-20 21:25N 55°01' E 010°60'513.2
2017-Jul-20 21:01N 54°57' E 010°55'714.7
2017-Jul-20 20:30N 54°50' E 010°50'713.9
2017-Jul-20 20:00N 54°43' E 010°47'612.7
2017-Jul-20 19:30N 54°39' E 010°54'917.0
2017-Jul-20 19:00N 54°36' E 011°08'714.8
2017-Jul-20 18:30N 54°34' E 011°20'714.0
2017-Jul-20 18:01N 54°31' E 011°31'713.7
2017-Jul-20 17:30N 54°28' E 011°41'714.4
2017-Jul-20 17:01N 54°27' E 011°54'815.5
2017-Jul-20 16:30N 54°27' E 012°07'713.4
2017-Jul-20 16:00N 54°32' E 012°14'1513.5
2017-Jul-20 14:53N 54°43' E 012°31'1716.2
2017-Jul-20 13:51N 54°50' E 012°58'616.4
2017-Jul-20 13:30N 54°52' E 013°07'1114.4
2017-Jul-20 12:43N 54°56' E 013°25'313.0
2017-Jul-20 12:29N 54°57' E 013°30'613.0
2017-Jul-20 12:00N 54°59' E 013°40'712.9
2017-Jul-20 11:30N 55°01' E 013°51'713.1
2017-Jul-20 11:00N 55°04' E 014°02'612.7
2017-Jul-20 10:30N 55°08' E 014°10'612.9
2017-Jul-20 10:01N 55°13' E 014°17'612.8
2017-Jul-20 09:30N 55°18' E 014°24'612.8
2017-Jul-20 09:01N 55°23' E 014°31'612.4
2017-Jul-20 08:31N 55°27' E 014°39'612.4
2017-Jul-20 08:01N 55°31' E 014°48'815.4
2017-Jul-20 07:30N 55°35' E 014°59'815.5
2017-Jul-20 07:01N 55°38' E 015°12'816.2
2017-Jul-20 06:31N 55°40' E 015°26'816.4
2017-Jul-20 06:00N 55°42' E 015°40'816.3
2017-Jul-20 05:31N 55°44' E 015°54'816.2
2017-Jul-20 05:01N 55°46' E 016°08'816.2
2017-Jul-20 04:30N 55°48' E 016°22'816.2
2017-Jul-20 04:00N 55°50' E 016°36'816.1
2017-Jul-20 03:30N 55°52' E 016°50'816.2
2017-Jul-20 03:00N 55°54' E 017°04'816.2
2017-Jul-20 02:30N 55°55' E 017°18'816.2
2017-Jul-20 02:00N 55°57' E 017°32'816.1
2017-Jul-20 01:30N 55°60' E 017°46'816.2
2017-Jul-20 01:00N 56°04' E 017°58'816.3
2017-Jul-20 00:30N 56°09' E 018°10'816.2
2017-Jul-20 00:01N 56°13' E 018°22'816.3
2017-Jul-19 23:30N 56°18' E 018°34'816.1
2017-Jul-19 23:00N 56°23' E 018°46'816.4
2017-Jul-19 22:30N 56°30' E 018°53'816.2
2017-Jul-19 22:00N 56°37' E 019°00'916.1
2017-Jul-19 21:25N 56°45' E 019°09'15117.1
2017-Jul-19 12:35N 58°58' E 021°24'118.6
2017-Jul-19 12:31N 58°59' E 021°25'918.8
2017-Jul-19 12:01N 59°07' E 021°35'918.5
2017-Jul-19 11:31N 59°14' E 021°48'918.7
2017-Jul-19 11:01N 59°19' E 022°02'918.9
2017-Jul-19 10:31N 59°25' E 022°17'919.0
2017-Jul-19 10:01N 59°30' E 022°32'1019.1
2017-Jul-19 09:30N 59°33' E 022°51'918.7
2017-Jul-19 09:01N 59°36' E 023°08'918.6
2017-Jul-19 08:30N 59°39' E 023°26'918.8
2017-Jul-19 08:01N 59°42' E 023°43'918.7
2017-Jul-19 07:30N 59°44' E 024°01'918.7
2017-Jul-19 07:00N 59°47' E 024°19'918.7
2017-Jul-19 06:31N 59°49' E 024°37'918.7
2017-Jul-19 06:00N 59°51' E 024°55'918.7
2017-Jul-19 05:31N 59°53' E 025°14'918.7
2017-Jul-19 05:01N 59°54' E 025°32'918.8
2017-Jul-19 04:31N 59°56' E 025°50'918.8
2017-Jul-19 04:00N 59°58' E 026°09'918.9
2017-Jul-19 03:31N 60°00' E 026°27'918.2
2017-Jul-19 03:00N 60°01' E 026°45'918.7
2017-Jul-19 02:30N 59°60' E 027°04'919.1
2017-Jul-19 02:01N 60°04' E 027°20'1019.3
2017-Jul-19 01:31N 60°09' E 027°36'917.9
2017-Jul-19 01:00N 60°11' E 027°54'918.9
2017-Jul-19 00:31N 60°09' E 028°12'918.9
2017-Jul-19 00:00N 60°04' E 028°28'918.8
2017-Jul-18 23:31N 60°03' E 028°47'1018.9
2017-Jul-18 23:00N 60°02' E 029°06'918.3
2017-Jul-18 22:30N 60°02' E 029°24'5 9.6
2017-Jul-18 22:00N 60°01' E 029°33'711.5
2017-Jul-18 21:20N 59°58' E 029°47'410.8
2017-Jul-18 21:00N 59°57' E 029°54'710.0
2017-Jul-18 20:17N 59°54' E 030°07'2 7.8
2017-Jul-18 20:01N 59°53' E 030°11'0 0.3
2017-Jul-18 19:27N 59°53' E 030°11'0 0.0
2017-Jul-18 18:57N 59°53' E 030°11'0 0.0
2017-Jul-18 18:30N 59°53' E 030°11'0 0.0
2017-Jul-18 17:58N 59°53' E 030°11'0 0.0
2017-Jul-18 17:13N 59°53' E 030°11'0 0.0
2017-Jul-18 17:00N 59°53' E 030°11'0 0.0
2017-Jul-18 16:30N 59°53' E 030°11'0 0.0
2017-Jul-18 16:00N 59°53' E 030°11'0 0.0
2017-Jul-18 15:30N 59°53' E 030°11'0 0.0
2017-Jul-18 15:00N 59°53' E 030°11'0 0.0
2017-Jul-18 13:11N 59°53' E 030°11'0 0.1
2017-Jul-18 13:01N 59°53' E 030°11'0 0.0
2017-Jul-18 12:30N 59°53' E 030°11'0 0.0
2017-Jul-18 11:20N 59°53' E 030°11'0 0.0
2017-Jul-18 10:59N 59°53' E 030°11'0 0.0
2017-Jul-18 10:29N 59°53' E 030°11'0 0.0
2017-Jul-18 09:59N 59°53' E 030°11'0 0.0
2017-Jul-18 09:29N 59°53' E 030°11'0 0.0
2017-Jul-18 08:56N 59°53' E 030°11'0 0.0
2017-Jul-18 08:29N 59°53' E 030°11'0 0.0
2017-Jul-18 07:59N 59°53' E 030°11'0 0.0
2017-Jul-18 07:26N 59°53' E 030°11'0 0.0
2017-Jul-18 06:59N 59°53' E 030°11'0 0.0
2017-Jul-18 06:29N 59°53' E 030°11'0 0.0
2017-Jul-18 05:59N 59°53' E 030°11'0 0.0
2017-Jul-18 05:29N 59°53' E 030°11'0 0.0
2017-Jul-18 04:59N 59°53' E 030°11'0 0.0
2017-Jul-18 04:30N 59°53' E 030°11'0 0.0
2017-Jul-18 04:00N 59°53' E 030°11'0 0.0
2017-Jul-18 03:29N 59°53' E 030°11'0 0.0
2017-Jul-18 02:58N 59°53' E 030°11'0 0.0
2017-Jul-18 02:30N 59°53' E 030°11'0 0.0
2017-Jul-18 01:59N 59°53' E 030°11'0 0.0
2017-Jul-18 01:29N 59°53' E 030°11'0 0.0
2017-Jul-18 00:59N 59°53' E 030°11'0 0.0
2017-Jul-18 00:29N 59°53' E 030°11'0 0.0
2017-Jul-17 23:59N 59°53' E 030°11'0 0.0
2017-Jul-17 23:29N 59°53' E 030°11'0 0.0
2017-Jul-17 22:59N 59°53' E 030°11'0 0.0
2017-Jul-17 22:29N 59°53' E 030°11'0 0.0
2017-Jul-17 22:00N 59°53' E 030°11'0 0.0
2017-Jul-17 21:30N 59°53' E 030°11'0 0.0
2017-Jul-17 21:00N 59°53' E 030°11'0 0.0
2017-Jul-17 20:30N 59°53' E 030°11'0 0.0
2017-Jul-17 20:00N 59°53' E 030°11'0 0.0
2017-Jul-17 19:30N 59°53' E 030°11'0 0.0
2017-Jul-17 18:55N 59°53' E 030°11'0 0.0
2017-Jul-17 18:28N 59°53' E 030°11'0 0.0
2017-Jul-17 18:00N 59°53' E 030°11'0 0.0
2017-Jul-17 17:31N 59°53' E 030°11'0 0.0
2017-Jul-17 16:54N 59°53' E 030°11'0 0.0
2017-Jul-17 16:30N 59°53' E 030°11'0 0.0
2017-Jul-17 16:00N 59°53' E 030°11'0 0.0
2017-Jul-17 15:31N 59°53' E 030°11'0 0.0
2017-Jul-17 14:54N 59°53' E 030°11'0 0.0
2017-Jul-17 14:30N 59°53' E 030°11'0 0.0
2017-Jul-17 14:00N 59°53' E 030°11'0 0.0
2017-Jul-17 13:31N 59°53' E 030°11'0 0.0
2017-Jul-17 12:58N 59°53' E 030°11'0 0.0
2017-Jul-17 12:28N 59°53' E 030°11'0 0.0
2017-Jul-17 11:58N 59°53' E 030°11'0 0.0
2017-Jul-17 11:30N 59°53' E 030°11'0 0.0
2017-Jul-17 11:00N 59°53' E 030°11'0 0.0
2017-Jul-17 10:26N 59°53' E 030°11'0 0.0
2017-Jul-17 09:59N 59°53' E 030°11'0 0.0
2017-Jul-17 09:29N 59°53' E 030°11'0 0.0
2017-Jul-17 08:59N 59°53' E 030°11'0 0.0
2017-Jul-17 08:29N 59°53' E 030°11'0 0.0
2017-Jul-17 07:59N 59°53' E 030°11'0 0.0
2017-Jul-17 07:26N 59°53' E 030°11'0 0.0
2017-Jul-17 06:59N 59°53' E 030°11'0 0.0
2017-Jul-17 06:28N 59°53' E 030°11'0 0.0
2017-Jul-17 05:58N 59°53' E 030°11'0 0.0
2017-Jul-17 05:28N 59°53' E 030°11'0 0.0
2017-Jul-17 04:46N 59°53' E 030°11'0 0.0
2017-Jul-17 04:28N 59°53' E 030°11'0 0.0
2017-Jul-17 03:58N 59°53' E 030°11'0 0.0
2017-Jul-17 03:28N 59°53' E 030°11'0 0.0
2017-Jul-17 02:58N 59°53' E 030°11'0 0.0
2017-Jul-17 02:28N 59°53' E 030°11'0 0.0
2017-Jul-17 01:58N 59°53' E 030°11'0 0.0
2017-Jul-17 01:28N 59°53' E 030°11'0 0.0
2017-Jul-17 00:58N 59°53' E 030°11'0 0.0
2017-Jul-17 00:28N 59°53' E 030°11'0 0.0
2017-Jul-16 23:58N 59°53' E 030°11'0 0.0
2017-Jul-16 23:29N 59°53' E 030°11'0 0.0
2017-Jul-16 23:00N 59°53' E 030°11'0 0.0
2017-Jul-16 22:29N 59°53' E 030°11'0 0.0
2017-Jul-16 21:59N 59°53' E 030°11'0 0.0
2017-Jul-16 21:28N 59°53' E 030°11'0 0.0
2017-Jul-16 21:00N 59°53' E 030°11'0 0.0
2017-Jul-16 20:30N 59°53' E 030°11'0 0.0
2017-Jul-16 20:00N 59°53' E 030°11'0 0.0
2017-Jul-16 19:30N 59°53' E 030°11'0 0.0
2017-Jul-16 18:59N 59°53' E 030°11'0 0.0
2017-Jul-16 18:29N 59°53' E 030°11'0 0.0
2017-Jul-16 17:59N 59°53' E 030°11'0 0.0
2017-Jul-16 17:29N 59°53' E 030°11'0 0.0
2017-Jul-16 16:59N 59°53' E 030°11'0 0.0
2017-Jul-16 16:29N 59°53' E 030°11'0 0.0
2017-Jul-16 15:59N 59°53' E 030°11'0 0.0
2017-Jul-16 15:26N 59°53' E 030°11'0 0.0
2017-Jul-16 14:59N 59°53' E 030°11'0 0.0
2017-Jul-16 14:29N 59°53' E 030°11'0 0.0
2017-Jul-16 14:01N 59°53' E 030°11'0 0.5
2017-Jul-16 13:30N 59°53' E 030°11'1 2.1
2017-Jul-16 12:58N 59°54' E 030°14'0 0.0
2017-Jul-16 12:28N 59°54' E 030°14'0 0.0
2017-Jul-16 11:55N 59°54' E 030°14'0 0.0
2017-Jul-16 11:28N 59°54' E 030°14'0 0.0
2017-Jul-16 10:55N 59°54' E 030°14'0 0.0
2017-Jul-16 10:28N 59°54' E 030°14'0 0.0
2017-Jul-16 09:58N 59°54' E 030°14'0 0.0
2017-Jul-16 09:25N 59°54' E 030°14'0 0.0
2017-Jul-16 08:58N 59°54' E 030°14'0 0.0
2017-Jul-16 08:28N 59°54' E 030°14'0 0.0
2017-Jul-16 07:58N 59°54' E 030°14'0 0.0
2017-Jul-16 07:28N 59°54' E 030°14'0 0.0
2017-Jul-16 06:58N 59°54' E 030°14'0 0.0
2017-Jul-16 06:28N 59°54' E 030°14'0 0.0
2017-Jul-16 05:58N 59°54' E 030°14'0 0.0
2017-Jul-16 04:37N 59°54' E 030°14'0 0.0
2017-Jul-16 04:25N 59°54' E 030°14'0 0.0
2017-Jul-16 03:58N 59°54' E 030°14'0 0.0
2017-Jul-16 03:28N 59°54' E 030°14'0 0.0
2017-Jul-16 02:58N 59°54' E 030°14'0 0.0
2017-Jul-16 02:28N 59°54' E 030°14'0 0.0
2017-Jul-16 01:58N 59°54' E 030°14'0 0.0
2017-Jul-16 01:25N 59°54' E 030°14'0 0.0
2017-Jul-16 00:58N 59°54' E 030°14'0 0.0
2017-Jul-16 00:28N 59°54' E 030°14'0 0.0
2017-Jul-15 23:58N 59°53' E 030°14'0 0.0
2017-Jul-15 23:28N 59°54' E 030°14'0 0.0
2017-Jul-15 22:58N 59°54' E 030°14'0 0.0
2017-Jul-15 22:28N 59°54' E 030°14'0 0.0
2017-Jul-15 21:59N 59°54' E 030°14'0 0.0
2017-Jul-15 21:30N 59°54' E 030°14'0 0.0
2017-Jul-15 20:57N 59°54' E 030°14'0 0.0
2017-Jul-15 20:30N 59°54' E 030°14'0 0.0
2017-Jul-15 20:00N 59°54' E 030°14'0 0.0
2017-Jul-15 19:30N 59°54' E 030°14'0 0.0
2017-Jul-15 19:00N 59°53' E 030°14'0 0.0
2017-Jul-15 18:30N 59°54' E 030°14'0 0.0
2017-Jul-15 18:00N 59°54' E 030°14'0 0.0
2017-Jul-15 17:25N 59°54' E 030°14'0 0.0
2017-Jul-15 16:58N 59°54' E 030°14'0 0.0
2017-Jul-15 16:31N 59°54' E 030°14'0 0.0
2017-Jul-15 16:00N 59°54' E 030°14'0 0.8
2017-Jul-15 15:31N 59°53' E 030°13'5 5.7
2017-Jul-15 14:37N 59°55' E 030°03'610.6
2017-Jul-15 14:00N 59°57' E 029°51'5 9.2
2017-Jul-15 13:30N 59°59' E 029°43'611.8
2017-Jul-15 13:00N 60°01' E 029°32'4 7.8
2017-Jul-15 12:30N 60°01' E 029°24'2 4.6
2017-Jul-15 12:00N 60°01' E 029°19'2 3.9
2017-Jul-15 11:30N 60°01' E 029°15'4 7.5
2017-Jul-15 11:00N 60°01' E 029°08'3 5.9
2017-Jul-15 10:30N 60°01' E 029°02'4 8.3
2017-Jul-15 10:01N 60°02' E 028°54'3 6.9
2017-Jul-15 09:30N 60°02' E 028°47'613.0
2017-Jul-15 09:00N 60°02' E 028°34'714.9
2017-Jul-15 08:30N 60°05' E 028°20'815.1
2017-Jul-15 08:01N 60°08' E 028°07'815.5
2017-Jul-15 07:31N 60°10' E 027°52'815.2
2017-Jul-15 07:01N 60°08' E 027°37'816.1
2017-Jul-15 06:30N 60°03' E 027°24'816.3
2017-Jul-15 06:00N 59°59' E 027°09'815.4
2017-Jul-15 05:31N 59°58' E 026°54'816.4
2017-Jul-15 05:00N 59°59' E 026°38'816.5
2017-Jul-15 04:31N 59°56' E 026°22'816.5
2017-Jul-15 04:00N 59°54' E 026°06'816.5
2017-Jul-15 03:31N 59°52' E 025°50'816.7
2017-Jul-15 03:00N 59°51' E 025°34'816.8
2017-Jul-15 02:30N 59°49' E 025°18'816.4
2017-Jul-15 02:01N 59°48' E 025°02'816.5
2017-Jul-15 01:31N 59°46' E 024°46'816.6
2017-Jul-15 01:01N 59°44' E 024°30'816.6
2017-Jul-15 00:31N 59°41' E 024°14'816.7
2017-Jul-15 00:01N 59°38' E 023°59'816.6
2017-Jul-14 23:31N 59°36' E 023°43'816.5
2017-Jul-14 23:01N 59°33' E 023°28'816.6
2017-Jul-14 22:31N 59°31' E 023°12'816.7
2017-Jul-14 22:01N 59°28' E 022°56'816.6
2017-Jul-14 21:31N 59°26' E 022°41'816.4
2017-Jul-14 21:01N 59°21' E 022°27'816.8
2017-Jul-14 20:30N 59°16' E 022°14'816.7
2017-Jul-14 20:01N 59°11' E 022°01'917.2
2017-Jul-14 19:31N 59°06' E 021°48'917.2
2017-Jul-14 19:00N 58°59' E 021°38'918.7
2017-Jul-14 18:31N 58°51' E 021°28'816.7
2017-Jul-14 18:01N 58°44' E 021°19'816.2
2017-Jul-14 17:30N 58°37' E 021°10'815.4
2017-Jul-14 17:00N 58°31' E 021°02'816.6
2017-Jul-14 16:30N 58°24' E 020°53'917.7
2017-Jul-14 16:00N 58°17' E 020°44'816.0
2017-Jul-14 15:30N 58°10' E 020°35'917.6
2017-Jul-14 15:00N 58°03' E 020°26'714.9
2017-Jul-14 14:31N 57°56' E 020°20'816.8
2017-Jul-14 14:00N 57°48' E 020°14'816.4
2017-Jul-14 13:30N 57°41' E 020°08'916.8
2017-Jul-14 12:58N 57°32' E 020°02'1916.7
2017-Jul-14 11:50N 57°15' E 019°48'616.6
2017-Jul-14 11:30N 57°10' E 019°44'10916.3
2017-Jul-14 04:49N 55°53' E 017°24'1116.9
2017-Jul-14 04:09N 55°50' E 017°04'217.0
2017-Jul-14 04:01N 55°50' E 017°00'816.9
2017-Jul-14 03:31N 55°47' E 016°46'816.9
2017-Jul-14 03:00N 55°45' E 016°31'816.8
2017-Jul-14 02:30N 55°43' E 016°17'816.8
2017-Jul-14 02:00N 55°41' E 016°02'816.9
2017-Jul-14 01:30N 55°40' E 015°47'816.8
2017-Jul-14 01:00N 55°38' E 015°33'816.5
2017-Jul-14 00:30N 55°35' E 015°20'816.6
2017-Jul-14 00:00N 55°31' E 015°06'816.7
2017-Jul-13 23:30N 55°27' E 014°53'816.9
2017-Jul-13 23:00N 55°24' E 014°40'816.7
2017-Jul-13 22:31N 55°17' E 014°30'816.6
2017-Jul-13 22:01N 55°11' E 014°21'816.4
2017-Jul-13 21:31N 55°04' E 014°13'714.9
2017-Jul-13 21:01N 54°59' E 014°03'816.6
2017-Jul-13 20:30N 54°57' E 013°49'816.8
2017-Jul-13 20:00N 54°55' E 013°35'816.8
2017-Jul-13 19:30N 54°52' E 013°21'816.4
2017-Jul-13 19:00N 54°50' E 013°08'816.6
2017-Jul-13 18:30N 54°47' E 012°54'1717.1
2017-Jul-13 17:31N 54°40' E 012°27'417.5
2017-Jul-13 17:18N 54°38' E 012°22'516.4
2017-Jul-13 17:00N 54°34' E 012°16'611.3
2017-Jul-13 16:31N 54°29' E 012°14'1814.7
2017-Jul-13 15:19N 54°26' E 011°44'516.8
2017-Jul-13 15:00N 54°28' E 011°36'917.0
2017-Jul-13 14:30N 54°32' E 011°23'816.9
2017-Jul-13 14:01N 54°35' E 011°09'816.4
2017-Jul-13 13:31N 54°37' E 010°56'714.9
2017-Jul-13 13:01N 54°42' E 010°46'917.1
2017-Jul-13 12:31N 54°51' E 010°50'816.2
2017-Jul-13 12:01N 54°58' E 010°56'816.1
2017-Jul-13 11:31N 55°06' E 010°59'815.1
2017-Jul-13 11:01N 55°12' E 011°06'917.9
2017-Jul-13 10:31N 55°21' E 011°02'9816.1
2017-Jul-13 04:25N 56°56' E 011°45'818.2
2017-Jul-13 04:00N 57°03' E 011°40'918.0
2017-Jul-13 03:30N 57°12' E 011°35'1018.3
2017-Jul-13 02:58N 57°21' E 011°28'817.9
2017-Jul-13 02:31N 57°28' E 011°22'918.0
2017-Jul-13 02:00N 57°35' E 011°10'918.1
2017-Jul-13 01:31N 57°41' E 010°58'917.9
2017-Jul-13 01:00N 57°47' E 010°45'713.9
2017-Jul-13 00:31N 57°49' E 010°33'611.5
2017-Jul-13 00:00N 57°49' E 010°22'714.8
2017-Jul-12 23:30N 57°48' E 010°08'917.9
2017-Jul-12 23:00N 57°46' E 009°52'1218.3
2017-Jul-12 22:21N 57°45' E 009°30'718.6
2017-Jul-12 22:00N 57°43' E 009°17'1618.5
2017-Jul-12 21:07N 57°39' E 008°48'15814.3
2017-Jul-12 10:05N 55°20' E 006°33'216.3
2017-Jul-12 09:57N 55°18' E 006°34'716.3
2017-Jul-12 09:30N 55°10' E 006°32'816.9
2017-Jul-12 09:00N 55°02' E 006°31'1416.2
2017-Jul-12 08:07N 54°50' E 006°44'217.3
2017-Jul-12 08:00N 54°48' E 006°46'918.5
2017-Jul-12 07:30N 54°41' E 006°56'1020.1
2017-Jul-12 07:00N 54°33' E 007°07'4220.6
2017-Jul-12 04:59N 53°57' E 007°42'715.5
2017-Jul-12 04:30N 53°52' E 007°52'714.9
2017-Jul-12 04:00N 53°50' E 008°04'918.9
2017-Jul-12 03:30N 53°44' E 008°16'917.5
2017-Jul-12 03:01N 53°38' E 008°27'4 6.7
2017-Jul-12 02:28N 53°36' E 008°31'0 0.0
2017-Jul-12 01:58N 53°36' E 008°31'0 0.0
2017-Jul-12 01:28N 53°36' E 008°31'0 0.0
2017-Jul-12 00:58N 53°36' E 008°31'0 0.0
2017-Jul-12 00:28N 53°36' E 008°31'0 0.0
2017-Jul-11 23:58N 53°36' E 008°31'0 0.0
2017-Jul-11 23:28N 53°36' E 008°31'0 0.0
2017-Jul-11 22:58N 53°36' E 008°31'0 0.0
2017-Jul-11 22:28N 53°36' E 008°31'0 0.0
2017-Jul-11 21:58N 53°36' E 008°31'0 0.0
2017-Jul-11 21:28N 53°36' E 008°31'0 0.0
2017-Jul-11 20:58N 53°36' E 008°31'0 0.0
2017-Jul-11 20:28N 53°36' E 008°31'0 0.0
2017-Jul-11 19:58N 53°36' E 008°31'0 0.0
2017-Jul-11 19:28N 53°36' E 008°31'0 0.0
2017-Jul-11 18:58N 53°36' E 008°31'0 0.0
2017-Jul-11 18:28N 53°36' E 008°31'0 0.0
2017-Jul-11 17:58N 53°36' E 008°31'0 0.0
2017-Jul-11 17:28N 53°36' E 008°31'0 0.0
2017-Jul-11 16:58N 53°36' E 008°31'0 0.0
2017-Jul-11 16:28N 53°36' E 008°31'0 0.0
2017-Jul-11 15:58N 53°36' E 008°31'0 0.0
2017-Jul-11 15:28N 53°36' E 008°31'0 0.0
2017-Jul-11 14:58N 53°36' E 008°31'0 0.0
2017-Jul-11 14:28N 53°36' E 008°31'0 0.0
2017-Jul-11 13:58N 53°36' E 008°31'  
Track history (hours):
 
Tides and Currents Weather Stations Pressure Air Temp Water Temp Dewpoint Dewpoint Depression Visibility Wind Speed Wind Dir Waves Ship Positions

Maersk Nimes

Last reported at 2017-Jul-21 13:46 UTC. Time now 2017-Jul-21 16:50 UTC.
Position N 57°49' E 009°53'.

Length 210 m; draft 10.8 m.

Type: Cargo ship. MMSI: 477559200.

Date/timePositionNaut miles runAvg speedWind from/ knotsBaromVisibWave heightAir tempDewpointWater temp
2017-Jul-21 13:46N 57°49' E 009°53'414.9
2017-Jul-21 13:30N 57°50' E 010°00'814.6
2017-Jul-21 13:00N 57°50' E 010°14'714.7
2017-Jul-21 12:30N 57°50' E 010°28'714.3
2017-Jul-21 12:00N 57°50' E 010°42'612.0
2017-Jul-21 11:30N 57°46' E 010°50'611.4
2017-Jul-21 11:01N 57°42' E 010°58'713.4
2017-Jul-21 10:30N 57°38' E 011°07'713.8
2017-Jul-21 10:00N 57°33' E 011°16'713.6
2017-Jul-21 09:30N 57°28' E 011°25'713.7
2017-Jul-21 09:00N 57°22' E 011°30'713.4
2017-Jul-21 08:31N 57°15' E 011°34'713.7
2017-Jul-21 08:00N 57°09' E 011°38'813.5
2017-Jul-21 07:24N 57°01' E 011°43'613.3
2017-Jul-21 06:56N 56°55' E 011°47'713.1
2017-Jul-21 06:24N 56°49' E 011°51'512.0
2017-Jul-21 05:59N 56°44' E 011°52'714.0
2017-Jul-21 05:30N 56°38' E 011°46'612.8
2017-Jul-21 05:00N 56°32' E 011°40'3113.0
2017-Jul-21 02:38N 56°06' E 011°10'213.8
2017-Jul-21 02:30N 56°05' E 011°08'714.1
2017-Jul-21 02:00N 55°59' E 011°02'714.5
2017-Jul-21 01:30N 55°53' E 010°54'714.8
2017-Jul-21 01:00N 55°46' E 010°49'714.1
2017-Jul-21 00:29N 55°39' E 010°47'714.5
2017-Jul-20 23:59N 55°32' E 010°52'713.6
2017-Jul-20 23:29N 55°26' E 010°58'713.7
2017-Jul-20 22:59N 55°20' E 011°02'613.5
2017-Jul-20 22:30N 55°14' E 011°06'1311.8
2017-Jul-20 21:25N 55°01' E 010°60'513.2
2017-Jul-20 21:01N 54°57' E 010°55'714.7
2017-Jul-20 20:30N 54°50' E 010°50'713.9
2017-Jul-20 20:00N 54°43' E 010°47'612.7
2017-Jul-20 19:30N 54°39' E 010°54'917.0
2017-Jul-20 19:00N 54°36' E 011°08'714.8
2017-Jul-20 18:30N 54°34' E 011°20'714.0
2017-Jul-20 18:01N 54°31' E 011°31'713.7
2017-Jul-20 17:30N 54°28' E 011°41'714.4
2017-Jul-20 17:01N 54°27' E 011°54'815.5
2017-Jul-20 16:30N 54°27' E 012°07'713.4
2017-Jul-20 16:00N 54°32' E 012°14'1513.5
2017-Jul-20 14:53N 54°43' E 012°31'1716.2
2017-Jul-20 13:51N 54°50' E 012°58'616.4
2017-Jul-20 13:30N 54°52' E 013°07'1114.4
2017-Jul-20 12:43N 54°56' E 013°25'313.0
2017-Jul-20 12:29N 54°57' E 013°30'613.0
2017-Jul-20 12:00N 54°59' E 013°40'712.9
2017-Jul-20 11:30N 55°01' E 013°51'713.1
2017-Jul-20 11:00N 55°04' E 014°02'612.7
2017-Jul-20 10:30N 55°08' E 014°10'612.9
2017-Jul-20 10:01N 55°13' E 014°17'612.8
2017-Jul-20 09:30N 55°18' E 014°24'612.8
2017-Jul-20 09:01N 55°23' E 014°31'612.4
2017-Jul-20 08:31N 55°27' E 014°39'612.4
2017-Jul-20 08:01N 55°31' E 014°48'815.4
2017-Jul-20 07:30N 55°35' E 014°59'815.5
2017-Jul-20 07:01N 55°38' E 015°12'816.2
2017-Jul-20 06:31N 55°40' E 015°26'816.4
2017-Jul-20 06:00N 55°42' E 015°40'816.3
2017-Jul-20 05:31N 55°44' E 015°54'816.2
2017-Jul-20 05:01N 55°46' E 016°08'816.2
2017-Jul-20 04:30N 55°48' E 016°22'816.2
2017-Jul-20 04:00N 55°50' E 016°36'816.1
2017-Jul-20 03:30N 55°52' E 016°50'816.2
2017-Jul-20 03:00N 55°54' E 017°04'816.2
2017-Jul-20 02:30N 55°55' E 017°18'816.2
2017-Jul-20 02:00N 55°57' E 017°32'816.1
2017-Jul-20 01:30N 55°60' E 017°46'816.2
2017-Jul-20 01:00N 56°04' E 017°58'816.3
2017-Jul-20 00:30N 56°09' E 018°10'816.2
2017-Jul-20 00:01N 56°13' E 018°22'816.3
2017-Jul-19 23:30N 56°18' E 018°34'816.1
2017-Jul-19 23:00N 56°23' E 018°46'816.4
2017-Jul-19 22:30N 56°30' E 018°53'816.2
2017-Jul-19 22:00N 56°37' E 019°00'916.1
2017-Jul-19 21:25N 56°45' E 019°09'15117.1
2017-Jul-19 12:35N 58°58' E 021°24'118.6
2017-Jul-19 12:31N 58°59' E 021°25'918.8
2017-Jul-19 12:01N 59°07' E 021°35'918.5
2017-Jul-19 11:31N 59°14' E 021°48'918.7
2017-Jul-19 11:01N 59°19' E 022°02'918.9
2017-Jul-19 10:31N 59°25' E 022°17'919.0
2017-Jul-19 10:01N 59°30' E 022°32'1019.1
2017-Jul-19 09:30N 59°33' E 022°51'918.7
2017-Jul-19 09:01N 59°36' E 023°08'918.6
2017-Jul-19 08:30N 59°39' E 023°26'918.8
2017-Jul-19 08:01N 59°42' E 023°43'918.7
2017-Jul-19 07:30N 59°44' E 024°01'918.7
2017-Jul-19 07:00N 59°47' E 024°19'918.7
2017-Jul-19 06:31N 59°49' E 024°37'918.7
2017-Jul-19 06:00N 59°51' E 024°55'918.7
2017-Jul-19 05:31N 59°53' E 025°14'918.7
2017-Jul-19 05:01N 59°54' E 025°32'918.8
2017-Jul-19 04:31N 59°56' E 025°50'918.8
2017-Jul-19 04:00N 59°58' E 026°09'918.9
2017-Jul-19 03:31N 60°00' E 026°27'918.2
2017-Jul-19 03:00N 60°01' E 026°45'918.7
2017-Jul-19 02:30N 59°60' E 027°04'919.1
2017-Jul-19 02:01N 60°04' E 027°20'1019.3
2017-Jul-19 01:31N 60°09' E 027°36'917.9
2017-Jul-19 01:00N 60°11' E 027°54'918.9
2017-Jul-19 00:31N 60°09' E 028°12'918.9
2017-Jul-19 00:00N 60°04' E 028°28'918.8
2017-Jul-18 23:31N 60°03' E 028°47'1018.9
2017-Jul-18 23:00N 60°02' E 029°06'918.3
2017-Jul-18 22:30N 60°02' E 029°24'5 9.6
2017-Jul-18 22:00N 60°01' E 029°33'711.5
2017-Jul-18 21:20N 59°58' E 029°47'410.8
2017-Jul-18 21:00N 59°57' E 029°54'710.0
2017-Jul-18 20:17N 59°54' E 030°07'2 7.8
2017-Jul-18 20:01N 59°53' E 030°11'0 0.3
2017-Jul-18 19:27N 59°53' E 030°11'0 0.0
2017-Jul-18 18:57N 59°53' E 030°11'0 0.0
2017-Jul-18 18:30N 59°53' E 030°11'0 0.0
2017-Jul-18 17:58N 59°53' E 030°11'0 0.0
2017-Jul-18 17:13N 59°53' E 030°11'0 0.0
2017-Jul-18 17:00N 59°53' E 030°11'0 0.0
2017-Jul-18 16:30N 59°53' E 030°11'0 0.0
2017-Jul-18 16:00N 59°53' E 030°11'0 0.0
2017-Jul-18 15:30N 59°53' E 030°11'0 0.0
2017-Jul-18 15:00N 59°53' E 030°11'0 0.0
2017-Jul-18 13:11N 59°53' E 030°11'0 0.1
2017-Jul-18 13:01N 59°53' E 030°11'0 0.0
2017-Jul-18 12:30N 59°53' E 030°11'0 0.0
2017-Jul-18 11:20N 59°53' E 030°11'0 0.0
2017-Jul-18 10:59N 59°53' E 030°11'0 0.0
2017-Jul-18 10:29N 59°53' E 030°11'0 0.0
2017-Jul-18 09:59N 59°53' E 030°11'0 0.0
2017-Jul-18 09:29N 59°53' E 030°11'0 0.0
2017-Jul-18 08:56N 59°53' E 030°11'0 0.0
2017-Jul-18 08:29N 59°53' E 030°11'0 0.0
2017-Jul-18 07:59N 59°53' E 030°11'0 0.0
2017-Jul-18 07:26N 59°53' E 030°11'0 0.0
2017-Jul-18 06:59N 59°53' E 030°11'0 0.0
2017-Jul-18 06:29N 59°53' E 030°11'0 0.0
2017-Jul-18 05:59N 59°53' E 030°11'0 0.0
2017-Jul-18 05:29N 59°53' E 030°11'0 0.0
2017-Jul-18 04:59N 59°53' E 030°11'0 0.0
2017-Jul-18 04:30N 59°53' E 030°11'0 0.0
2017-Jul-18 04:00N 59°53' E 030°11'0 0.0
2017-Jul-18 03:29N 59°53' E 030°11'0 0.0
2017-Jul-18 02:58N 59°53' E 030°11'0 0.0
2017-Jul-18 02:30N 59°53' E 030°11'0 0.0
2017-Jul-18 01:59N 59°53' E 030°11'0 0.0
2017-Jul-18 01:29N 59°53' E 030°11'0 0.0
2017-Jul-18 00:59N 59°53' E 030°11'0 0.0
2017-Jul-18 00:29N 59°53' E 030°11'0 0.0
2017-Jul-17 23:59N 59°53' E 030°11'0 0.0
2017-Jul-17 23:29N 59°53' E 030°11'0 0.0
2017-Jul-17 22:59N 59°53' E 030°11'0 0.0
2017-Jul-17 22:29N 59°53' E 030°11'0 0.0
2017-Jul-17 22:00N 59°53' E 030°11'0 0.0
2017-Jul-17 21:30N 59°53' E 030°11'0 0.0
2017-Jul-17 21:00N 59°53' E 030°11'0 0.0
2017-Jul-17 20:30N 59°53' E 030°11'0 0.0
2017-Jul-17 20:00N 59°53' E 030°11'0 0.0
2017-Jul-17 19:30N 59°53' E 030°11'0 0.0
2017-Jul-17 18:55N 59°53' E 030°11'0 0.0
2017-Jul-17 18:28N 59°53' E 030°11'0 0.0
2017-Jul-17 18:00N 59°53' E 030°11'0 0.0
2017-Jul-17 17:31N 59°53' E 030°11'0 0.0
2017-Jul-17 16:54N 59°53' E 030°11'0 0.0
2017-Jul-17 16:30N 59°53' E 030°11'0 0.0
2017-Jul-17 16:00N 59°53' E 030°11'0 0.0
2017-Jul-17 15:31N 59°53' E 030°11'0 0.0
2017-Jul-17 14:54N 59°53' E 030°11'0 0.0
2017-Jul-17 14:30N 59°53' E 030°11'0 0.0
2017-Jul-17 14:00N 59°53' E 030°11'0 0.0
2017-Jul-17 13:31N 59°53' E 030°11'0 0.0
2017-Jul-17 12:58N 59°53' E 030°11'0 0.0
2017-Jul-17 12:28N 59°53' E 030°11'0 0.0
2017-Jul-17 11:58N 59°53' E 030°11'0 0.0
2017-Jul-17 11:30N 59°53' E 030°11'0 0.0
2017-Jul-17 11:00N 59°53' E 030°11'0 0.0
2017-Jul-17 10:26N 59°53' E 030°11'0 0.0
2017-Jul-17 09:59N 59°53' E 030°11'0 0.0
2017-Jul-17 09:29N 59°53' E 030°11'0 0.0
2017-Jul-17 08:59N 59°53' E 030°11'0 0.0
2017-Jul-17 08:29N 59°53' E 030°11'0 0.0
2017-Jul-17 07:59N 59°53' E 030°11'0 0.0
2017-Jul-17 07:26N 59°53' E 030°11'0 0.0
2017-Jul-17 06:59N 59°53' E 030°11'0 0.0
2017-Jul-17 06:28N 59°53' E 030°11'0 0.0
2017-Jul-17 05:58N 59°53' E 030°11'0 0.0
2017-Jul-17 05:28N 59°53' E 030°11'0 0.0
2017-Jul-17 04:46N 59°53' E 030°11'0 0.0
2017-Jul-17 04:28N 59°53' E 030°11'0 0.0
2017-Jul-17 03:58N 59°53' E 030°11'0 0.0
2017-Jul-17 03:28N 59°53' E 030°11'0 0.0
2017-Jul-17 02:58N 59°53' E 030°11'0 0.0
2017-Jul-17 02:28N 59°53' E 030°11'0 0.0
2017-Jul-17 01:58N 59°53' E 030°11'0 0.0
2017-Jul-17 01:28N 59°53' E 030°11'0 0.0
2017-Jul-17 00:58N 59°53' E 030°11'0 0.0
2017-Jul-17 00:28N 59°53' E 030°11'0 0.0
2017-Jul-16 23:58N 59°53' E 030°11'0 0.0
2017-Jul-16 23:29N 59°53' E 030°11'0 0.0
2017-Jul-16 23:00N 59°53' E 030°11'0 0.0
2017-Jul-16 22:29N 59°53' E 030°11'0 0.0
2017-Jul-16 21:59N 59°53' E 030°11'0 0.0
2017-Jul-16 21:28N 59°53' E 030°11'0 0.0
2017-Jul-16 21:00N 59°53' E 030°11'0 0.0
2017-Jul-16 20:30N 59°53' E 030°11'0 0.0
2017-Jul-16 20:00N 59°53' E 030°11'0 0.0
2017-Jul-16 19:30N 59°53' E 030°11'0 0.0
2017-Jul-16 18:59N 59°53' E 030°11'0 0.0
2017-Jul-16 18:29N 59°53' E 030°11'0 0.0
2017-Jul-16 17:59N 59°53' E 030°11'0 0.0
2017-Jul-16 17:29N 59°53' E 030°11'0 0.0
2017-Jul-16 16:59N 59°53' E 030°11'0 0.0
2017-Jul-16 16:29N 59°53' E 030°11'0 0.0
2017-Jul-16 15:59N 59°53' E 030°11'0 0.0
2017-Jul-16 15:26N 59°53' E 030°11'0 0.0
2017-Jul-16 14:59N 59°53' E 030°11'0 0.0
2017-Jul-16 14:29N 59°53' E 030°11'0 0.0
2017-Jul-16 14:01N 59°53' E 030°11'0 0.5
2017-Jul-16 13:30N 59°53' E 030°11'1 2.1
2017-Jul-16 12:58N 59°54' E 030°14'0 0.0
2017-Jul-16 12:28N 59°54' E 030°14'0 0.0
2017-Jul-16 11:55N 59°54' E 030°14'0 0.0
2017-Jul-16 11:28N 59°54' E 030°14'0 0.0
2017-Jul-16 10:55N 59°54' E 030°14'0 0.0
2017-Jul-16 10:28N 59°54' E 030°14'0 0.0
2017-Jul-16 09:58N 59°54' E 030°14'0 0.0
2017-Jul-16 09:25N 59°54' E 030°14'0 0.0
2017-Jul-16 08:58N 59°54' E 030°14'0 0.0
2017-Jul-16 08:28N 59°54' E 030°14'0 0.0
2017-Jul-16 07:58N 59°54' E 030°14'0 0.0
2017-Jul-16 07:28N 59°54' E 030°14'0 0.0
2017-Jul-16 06:58N 59°54' E 030°14'0 0.0
2017-Jul-16 06:28N 59°54' E 030°14'0 0.0
2017-Jul-16 05:58N 59°54' E 030°14'0 0.0
2017-Jul-16 04:37N 59°54' E 030°14'0 0.0
2017-Jul-16 04:25N 59°54' E 030°14'0 0.0
2017-Jul-16 03:58N 59°54' E 030°14'0 0.0
2017-Jul-16 03:28N 59°54' E 030°14'0 0.0
2017-Jul-16 02:58N 59°54' E 030°14'0 0.0
2017-Jul-16 02:28N 59°54' E 030°14'0 0.0
2017-Jul-16 01:58N 59°54' E 030°14'0 0.0
2017-Jul-16 01:25N 59°54' E 030°14'0 0.0
2017-Jul-16 00:58N 59°54' E 030°14'0 0.0
2017-Jul-16 00:28N 59°54' E 030°14'0 0.0
2017-Jul-15 23:58N 59°53' E 030°14'0 0.0
2017-Jul-15 23:28N 59°54' E 030°14'0 0.0
2017-Jul-15 22:58N 59°54' E 030°14'0 0.0
2017-Jul-15 22:28N 59°54' E 030°14'0 0.0
2017-Jul-15 21:59N 59°54' E 030°14'0 0.0
2017-Jul-15 21:30N 59°54' E 030°14'0 0.0
2017-Jul-15 20:57N 59°54' E 030°14'0 0.0
2017-Jul-15 20:30N 59°54' E 030°14'0 0.0
2017-Jul-15 20:00N 59°54' E 030°14'0 0.0
2017-Jul-15 19:30N 59°54' E 030°14'0 0.0
2017-Jul-15 19:00N 59°53' E 030°14'0 0.0
2017-Jul-15 18:30N 59°54' E 030°14'0 0.0
2017-Jul-15 18:00N 59°54' E 030°14'0 0.0
2017-Jul-15 17:25N 59°54' E 030°14'0 0.0
2017-Jul-15 16:58N 59°54' E 030°14'0 0.0
2017-Jul-15 16:31N 59°54' E 030°14'0 0.0
2017-Jul-15 16:00N 59°54' E 030°14'0 0.8
2017-Jul-15 15:31N 59°53' E 030°13'5 5.7
2017-Jul-15 14:37N 59°55' E 030°03'610.6
2017-Jul-15 14:00N 59°57' E 029°51'5 9.2
2017-Jul-15 13:30N 59°59' E 029°43'611.8
2017-Jul-15 13:00N 60°01' E 029°32'4 7.8
2017-Jul-15 12:30N 60°01' E 029°24'2 4.6
2017-Jul-15 12:00N 60°01' E 029°19'2 3.9
2017-Jul-15 11:30N 60°01' E 029°15'4 7.5
2017-Jul-15 11:00N 60°01' E 029°08'3 5.9
2017-Jul-15 10:30N 60°01' E 029°02'4 8.3
2017-Jul-15 10:01N 60°02' E 028°54'3 6.9
2017-Jul-15 09:30N 60°02' E 028°47'613.0
2017-Jul-15 09:00N 60°02' E 028°34'714.9
2017-Jul-15 08:30N 60°05' E 028°20'815.1
2017-Jul-15 08:01N 60°08' E 028°07'815.5
2017-Jul-15 07:31N 60°10' E 027°52'815.2
2017-Jul-15 07:01N 60°08' E 027°37'816.1
2017-Jul-15 06:30N 60°03' E 027°24'816.3
2017-Jul-15 06:00N 59°59' E 027°09'815.4
2017-Jul-15 05:31N 59°58' E 026°54'816.4
2017-Jul-15 05:00N 59°59' E 026°38'816.5
2017-Jul-15 04:31N 59°56' E 026°22'816.5
2017-Jul-15 04:00N 59°54' E 026°06'816.5
2017-Jul-15 03:31N 59°52' E 025°50'816.7
2017-Jul-15 03:00N 59°51' E 025°34'816.8
2017-Jul-15 02:30N 59°49' E 025°18'816.4
2017-Jul-15 02:01N 59°48' E 025°02'816.5
2017-Jul-15 01:31N 59°46' E 024°46'816.6
2017-Jul-15 01:01N 59°44' E 024°30'816.6
2017-Jul-15 00:31N 59°41' E 024°14'816.7
2017-Jul-15 00:01N 59°38' E 023°59'816.6
2017-Jul-14 23:31N 59°36' E 023°43'816.5
2017-Jul-14 23:01N 59°33' E 023°28'816.6
2017-Jul-14 22:31N 59°31' E 023°12'816.7
2017-Jul-14 22:01N 59°28' E 022°56'816.6
2017-Jul-14 21:31N 59°26' E 022°41'816.4
2017-Jul-14 21:01N 59°21' E 022°27'816.8
2017-Jul-14 20:30N 59°16' E 022°14'816.7
2017-Jul-14 20:01N 59°11' E 022°01'917.2
2017-Jul-14 19:31N 59°06' E 021°48'917.2
2017-Jul-14 19:00N 58°59' E 021°38'918.7
2017-Jul-14 18:31N 58°51' E 021°28'816.7
2017-Jul-14 18:01N 58°44' E 021°19'816.2
2017-Jul-14 17:30N 58°37' E 021°10'815.4
2017-Jul-14 17:00N 58°31' E 021°02'816.6
2017-Jul-14 16:30N 58°24' E 020°53'917.7
2017-Jul-14 16:00N 58°17' E 020°44'816.0
2017-Jul-14 15:30N 58°10' E 020°35'917.6
2017-Jul-14 15:00N 58°03' E 020°26'714.9
2017-Jul-14 14:31N 57°56' E 020°20'816.8
2017-Jul-14 14:00N 57°48' E 020°14'816.4
2017-Jul-14 13:30N 57°41' E 020°08'916.8
2017-Jul-14 12:58N 57°32' E 020°02'1916.7
2017-Jul-14 11:50N 57°15' E 019°48'616.6
2017-Jul-14 11:30N 57°10' E 019°44'10916.3
2017-Jul-14 04:49N 55°53' E 017°24'1116.9
2017-Jul-14 04:09N 55°50' E 017°04'217.0
2017-Jul-14 04:01N 55°50' E 017°00'816.9
2017-Jul-14 03:31N 55°47' E 016°46'816.9
2017-Jul-14 03:00N 55°45' E 016°31'816.8
2017-Jul-14 02:30N 55°43' E 016°17'816.8
2017-Jul-14 02:00N 55°41' E 016°02'816.9
2017-Jul-14 01:30N 55°40' E 015°47'816.8
2017-Jul-14 01:00N 55°38' E 015°33'816.5
2017-Jul-14 00:30N 55°35' E 015°20'816.6
2017-Jul-14 00:00N 55°31' E 015°06'816.7
2017-Jul-13 23:30N 55°27' E 014°53'816.9
2017-Jul-13 23:00N 55°24' E 014°40'816.7
2017-Jul-13 22:31N 55°17' E 014°30'816.6
2017-Jul-13 22:01N 55°11' E 014°21'816.4
2017-Jul-13 21:31N 55°04' E 014°13'714.9
2017-Jul-13 21:01N 54°59' E 014°03'816.6
2017-Jul-13 20:30N 54°57' E 013°49'816.8
2017-Jul-13 20:00N 54°55' E 013°35'816.8
2017-Jul-13 19:30N 54°52' E 013°21'816.4
2017-Jul-13 19:00N 54°50' E 013°08'816.6
2017-Jul-13 18:30N 54°47' E 012°54'1717.1
2017-Jul-13 17:31N 54°40' E 012°27'417.5
2017-Jul-13 17:18N 54°38' E 012°22'516.4
2017-Jul-13 17:00N 54°34' E 012°16'611.3
2017-Jul-13 16:31N 54°29' E 012°14'1814.7
2017-Jul-13 15:19N 54°26' E 011°44'516.8
2017-Jul-13 15:00N 54°28' E 011°36'917.0
2017-Jul-13 14:30N 54°32' E 011°23'816.9
2017-Jul-13 14:01N 54°35' E 011°09'816.4
2017-Jul-13 13:31N 54°37' E 010°56'714.9
2017-Jul-13 13:01N 54°42' E 010°46'917.1
2017-Jul-13 12:31N 54°51' E 010°50'816.2
2017-Jul-13 12:01N 54°58' E 010°56'816.1
2017-Jul-13 11:31N 55°06' E 010°59'815.1
2017-Jul-13 11:01N 55°12' E 011°06'917.9
2017-Jul-13 10:31N 55°21' E 011°02'9816.1
2017-Jul-13 04:25N 56°56' E 011°45'818.2
2017-Jul-13 04:00N 57°03' E 011°40'918.0
2017-Jul-13 03:30N 57°12' E 011°35'1018.3
2017-Jul-13 02:58N 57°21' E 011°28'817.9
2017-Jul-13 02:31N 57°28' E 011°22'918.0
2017-Jul-13 02:00N 57°35' E 011°10'918.1
2017-Jul-13 01:31N 57°41' E 010°58'917.9
2017-Jul-13 01:00N 57°47' E 010°45'713.9
2017-Jul-13 00:31N 57°49' E 010°33'611.5
2017-Jul-13 00:00N 57°49' E 010°22'714.8
2017-Jul-12 23:30N 57°48' E 010°08'917.9
2017-Jul-12 23:00N 57°46' E 009°52'1218.3
2017-Jul-12 22:21N 57°45' E 009°30'718.6
2017-Jul-12 22:00N 57°43' E 009°17'1618.5
2017-Jul-12 21:07N 57°39' E 008°48'15814.3
2017-Jul-12 10:05N 55°20' E 006°33'216.3
2017-Jul-12 09:57N 55°18' E 006°34'716.3
2017-Jul-12 09:30N 55°10' E 006°32'816.9
2017-Jul-12 09:00N 55°02' E 006°31'1416.2
2017-Jul-12 08:07N 54°50' E 006°44'217.3
2017-Jul-12 08:00N 54°48' E 006°46'918.5
2017-Jul-12 07:30N 54°41' E 006°56'1020.1
2017-Jul-12 07:00N 54°33' E 007°07'4220.6
2017-Jul-12 04:59N 53°57' E 007°42'715.5
2017-Jul-12 04:30N 53°52' E 007°52'714.9
2017-Jul-12 04:00N 53°50' E 008°04'918.9
2017-Jul-12 03:30N 53°44' E 008°16'917.5
2017-Jul-12 03:01N 53°38' E 008°27'4 6.7
2017-Jul-12 02:28N 53°36' E 008°31'0 0.0
2017-Jul-12 01:58N 53°36' E 008°31'0 0.0
2017-Jul-12 01:28N 53°36' E 008°31'0 0.0
2017-Jul-12 00:58N 53°36' E 008°31'0 0.0
2017-Jul-12 00:28N 53°36' E 008°31'0 0.0
2017-Jul-11 23:58N 53°36' E 008°31'0 0.0
2017-Jul-11 23:28N 53°36' E 008°31'0 0.0
2017-Jul-11 22:58N 53°36' E 008°31'0 0.0
2017-Jul-11 22:28N 53°36' E 008°31'0 0.0
2017-Jul-11 21:58N 53°36' E 008°31'0 0.0
2017-Jul-11 21:28N 53°36' E 008°31'0 0.0
2017-Jul-11 20:58N 53°36' E 008°31'0 0.0
2017-Jul-11 20:28N 53°36' E 008°31'0 0.0
2017-Jul-11 19:58N 53°36' E 008°31'0 0.0
2017-Jul-11 19:28N 53°36' E 008°31'0 0.0
2017-Jul-11 18:58N 53°36' E 008°31'0 0.0
2017-Jul-11 18:28N 53°36' E 008°31'0 0.0
2017-Jul-11 17:58N 53°36' E 008°31'0 0.0
2017-Jul-11 17:28N 53°36' E 008°31'0 0.0
2017-Jul-11 16:58N 53°36' E 008°31'0 0.0
2017-Jul-11 16:28N 53°36' E 008°31'0 0.0
2017-Jul-11 15:58N 53°36' E 008°31'0 0.0
2017-Jul-11 15:28N 53°36' E 008°31'0 0.0
2017-Jul-11 14:58N 53°36' E 008°31'0 0.0
2017-Jul-11 14:28N 53°36' E 008°31'0 0.0
2017-Jul-11 13:58N 53°36' E 008°31'  

Dump ship's entire track history